Time;durP1;ratioP1;P1;durP2;ratioP2;P2;SDS_P1;SDS_P2;PMS_P1;PMS_P2;Temp;Humidity;BMP_temperature;BMP_pressure;BME280_temperature;BME280_humidity;BME280_pressure;Samples;Min_cycle;Max_cycle;Signal;HPM_P1;HPM_P2
2021/07/01 00:00:25;;;;;;;0.80;0.68;;;24.20;57.50;;;;;;6236854;28;20036;-70
2021/07/01 00:03:25;;;;;;;0.60;0.60;;;24.20;57.50;;;;;;6275803;28;20024;-71
2021/07/01 00:06:26;;;;;;;0.70;0.60;;;24.20;57.50;;;;;;6237107;28;20079;-72
2021/07/01 00:09:27;;;;;;;1.15;0.93;;;24.20;57.50;;;;;;6236877;28;20032;-71
2021/07/01 00:12:28;;;;;;;0.70;0.70;;;24.20;57.50;;;;;;6215196;28;20030;-71
2021/07/01 00:15:32;;;;;;;0.75;0.70;;;24.20;57.50;;;;;;6230004;28;20537;-69
2021/07/01 00:18:32;;;;;;;0.50;0.50;;;24.20;57.50;;;;;;6237917;28;20033;-71
2021/07/01 00:21:33;;;;;;;0.60;0.50;;;24.20;57.50;;;;;;6236851;28;20053;-70
2021/07/01 00:24:33;;;;;;;0.70;0.70;;;24.20;57.50;;;;;;6237814;28;20060;-72
2021/07/01 00:27:34;;;;;;;0.55;0.55;;;24.20;57.50;;;;;;6237877;28;20064;-70
2021/07/01 00:30:35;;;;;;;0.73;0.70;;;24.20;57.50;;;;;;6221210;28;20122;-72
2021/07/01 00:33:35;;;;;;;0.70;0.60;;;24.20;57.50;;;;;;6212180;28;20033;-71
2021/07/01 00:36:36;;;;;;;0.60;0.60;;;24.20;57.50;;;;;;6235885;28;21005;-72
2021/07/01 00:39:37;;;;;;;0.52;0.52;;;24.20;57.50;;;;;;6237297;28;20030;-72
2021/07/01 00:42:38;;;;;;;0.75;0.60;;;24.20;57.50;;;;;;6235850;28;20109;-71
2021/07/01 00:45:38;;;;;;;0.70;0.60;;;24.20;57.50;;;;;;6237156;28;20156;-71
2021/07/01 00:48:39;;;;;;;0.60;0.60;;;24.20;57.50;;;;;;6236550;28;20033;-71
2021/07/01 00:51:40;;;;;;;0.82;0.65;;;24.20;57.50;;;;;;6237330;28;20036;-71
2021/07/01 00:54:42;;;;;;;0.70;0.60;;;24.20;57.50;;;;;;6221872;28;20054;-68
2021/07/01 00:57:43;;;;;;;0.73;0.70;;;24.20;57.50;;;;;;6235861;28;20037;-68
2021/07/01 01:03:54;;;;;;;0.70;0.52;;;24.20;57.50;;;;;;6237260;28;20025;-72
2021/07/01 01:06:54;;;;;;;0.60;0.60;;;24.20;57.50;;;;;;6214355;28;20018;-71
2021/07/01 01:09:55;;;;;;;0.57;0.50;;;24.20;57.50;;;;;;6262792;28;20036;-70
2021/07/01 01:12:56;;;;;;;0.63;0.60;;;24.20;57.50;;;;;;6212555;28;20018;-71
2021/07/01 01:16:01;;;;;;;0.45;0.45;;;24.20;57.50;;;;;;6222628;28;20037;-70
2021/07/01 01:19:02;;;;;;;0.88;0.70;;;24.20;57.50;;;;;;6237130;28;20382;-69
2021/07/01 01:22:03;;;;;;;0.73;0.60;;;24.20;57.50;;;;;;6235259;28;20060;-68
2021/07/01 01:25:04;;;;;;;0.50;0.50;;;24.20;57.50;;;;;;6235302;28;20026;-68
2021/07/01 01:28:06;;;;;;;0.73;0.65;;;24.20;57.50;;;;;;6235491;28;20052;-70
2021/07/01 01:31:07;;;;;;;0.73;0.63;;;24.20;57.50;;;;;;6234797;28;20025;-70
2021/07/01 01:34:08;;;;;;;0.63;0.50;;;24.20;57.50;;;;;;6236320;28;20014;-72
2021/07/01 01:37:09;;;;;;;0.75;0.75;;;24.20;57.50;;;;;;6234828;28;20060;-71
2021/07/01 01:40:10;;;;;;;0.47;0.40;;;24.20;57.50;;;;;;6236215;28;20034;-70
2021/07/01 01:43:13;;;;;;;0.60;0.60;;;24.20;57.50;;;;;;6234917;28;20109;-71
2021/07/01 01:46:13;;;;;;;0.60;0.60;;;24.20;57.50;;;;;;6236289;28;20028;-69
2021/07/01 01:49:17;;;;;;;0.57;0.50;;;24.20;57.50;;;;;;6234852;28;20026;-70
2021/07/01 01:52:18;;;;;;;0.60;0.60;;;24.20;57.50;;;;;;6235984;28;20083;-72
2021/07/01 01:55:19;;;;;;;0.55;0.55;;;24.20;57.50;;;;;;6186135;28;20026;-72
2021/07/01 01:58:20;;;;;;;0.50;0.50;;;24.20;57.50;;;;;;6235398;28;20036;-71
2021/07/01 02:01:21;;;;;;;0.55;0.55;;;24.20;57.50;;;;;;6236123;28;20013;-69
2021/07/01 02:04:21;;;;;;;0.63;0.57;;;24.20;57.50;;;;;;6234797;28;20104;-72
2021/07/01 02:07:22;;;;;;;0.60;0.60;;;24.20;57.50;;;;;;6235806;28;20101;-70
2021/07/01 02:10:28;;;;;;;0.88;0.68;;;24.20;57.50;;;;;;6230457;28;20029;-68
2021/07/01 02:13:28;;;;;;;0.60;0.52;;;24.20;57.50;;;;;;6233172;28;20175;-72
2021/07/01 02:16:29;;;;;;;0.50;0.50;;;24.20;57.50;;;;;;6235854;28;20029;-70
2021/07/01 02:19:30;;;;;;;1.25;0.70;;;24.20;57.50;;;;;;6234419;28;20017;-68
2021/07/01 02:22:30;;;;;;;0.85;0.75;;;24.20;57.50;;;;;;6234502;28;20549;-71
2021/07/01 02:25:35;;;;;;;0.80;0.70;;;24.20;57.50;;;;;;6234354;28;20029;-70
2021/07/01 02:28:36;;;;;;;0.50;0.50;;;24.20;57.50;;;;;;6234095;28;20036;-70
2021/07/01 02:31:36;;;;;;;0.60;0.60;;;24.20;57.50;;;;;;6234046;28;20029;-72
2021/07/01 02:34:40;;;;;;;0.55;0.52;;;24.20;57.50;;;;;;6235393;28;20522;-72
2021/07/01 02:37:42;;;;;;;0.50;0.50;;;24.20;57.50;;;;;;6235507;28;20026;-72
2021/07/01 02:40:42;;;;;;;0.60;0.60;;;24.20;57.50;;;;;;6234609;28;20288;-72
2021/07/01 02:43:43;;;;;;;0.60;0.50;;;24.20;57.50;;;;;;6237066;28;20028;-71
2021/07/01 02:46:45;;;;;;;0.40;0.40;;;24.20;57.50;;;;;;6238353;28;20029;-70
2021/07/01 02:49:45;;;;;;;0.50;0.50;;;24.20;57.50;;;;;;6239426;28;20548;-72
2021/07/01 02:52:46;;;;;;;0.70;0.70;;;24.20;57.50;;;;;;6234619;28;20125;-70
2021/07/01 02:55:47;;;;;;;0.47;0.47;;;24.20;57.50;;;;;;6213878;28;20034;-72
2021/07/01 02:58:49;;;;;;;0.63;0.60;;;24.20;57.50;;;;;;6233412;28;20022;-71
2021/07/01 03:01:50;;;;;;;0.73;0.40;;;24.20;57.50;;;;;;6236514;28;20065;-68
2021/07/01 03:04:51;;;;;;;0.52;0.52;;;24.20;57.50;;;;;;6213969;28;20486;-72
2021/07/01 03:07:52;;;;;;;0.55;0.55;;;24.20;57.50;;;;;;6221867;28;20029;-72
2021/07/01 03:10:52;;;;;;;0.50;0.50;;;24.20;57.50;;;;;;6266147;28;20027;-70
2021/07/01 03:13:54;;;;;;;0.70;0.60;;;24.20;57.50;;;;;;6281092;28;20029;-71
2021/07/01 03:16:55;;;;;;;0.47;0.47;;;24.20;57.50;;;;;;6237929;28;20065;-71
2021/07/01 03:19:56;;;;;;;0.40;0.40;;;24.20;57.50;;;;;;6237910;28;20025;-70
2021/07/01 03:22:56;;;;;;;0.43;0.43;;;24.20;57.50;;;;;;6238842;28;20036;-71
2021/07/01 03:25:57;;;;;;;0.40;0.40;;;24.20;57.50;;;;;;6238129;28;20017;-70
2021/07/01 03:28:57;;;;;;;0.50;0.50;;;24.20;57.50;;;;;;6225426;28;20104;-72
2021/07/01 03:31:58;;;;;;;0.50;0.50;;;24.20;57.50;;;;;;6213184;28;20030;-72
2021/07/01 03:34:59;;;;;;;1.05;0.60;;;24.20;57.50;;;;;;6234640;28;20026;-71
2021/07/01 03:38:00;;;;;;;0.47;0.47;;;24.20;57.50;;;;;;6246799;28;20726;-72
2021/07/01 03:41:01;;;;;;;0.55;0.50;;;24.20;57.50;;;;;;6213338;28;20022;-72
2021/07/01 03:44:01;;;;;;;0.65;0.65;;;24.20;57.50;;;;;;6224999;28;20055;-71
2021/07/01 03:47:02;;;;;;;0.50;0.40;;;24.20;57.50;;;;;;6237556;28;20022;-71
2021/07/01 03:50:04;;;;;;;0.50;0.50;;;24.20;57.50;;;;;;6238134;28;20029;-72
2021/07/01 03:53:05;;;;;;;0.50;0.50;;;24.20;57.50;;;;;;6232698;28;20046;-70
2021/07/01 03:56:05;;;;;;;0.50;0.50;;;24.20;57.50;;;;;;6236688;28;20529;-72
2021/07/01 04:03:03;;;;;;;0.50;0.50;;;24.20;57.50;;;;;;6237878;28;20425;-71
2021/07/01 04:06:04;;;;;;;0.50;0.50;;;24.20;57.50;;;;;;6290018;28;20034;-70
2021/07/01 04:09:06;;;;;;;0.32;0.32;;;24.20;58.10;;;;;;6306026;28;20501;-71
2021/07/01 04:12:07;;;;;;;0.50;0.40;;;24.20;57.50;;;;;;6218468;28;20610;-69
2021/07/01 04:15:08;;;;;;;0.50;0.50;;;24.20;57.50;;;;;;6229373;28;20040;-71
2021/07/01 04:18:16;;;;;;;0.30;0.30;;;24.20;57.50;;;;;;6236899;28;20029;-71
2021/07/01 04:21:17;;;;;;;0.40;0.40;;;24.20;57.50;;;;;;6237525;28;20168;-71
2021/07/01 04:24:18;;;;;;;0.60;0.30;;;24.20;57.50;;;;;;6236375;28;20024;-72
2021/07/01 04:27:19;;;;;;;0.45;0.45;;;24.20;57.50;;;;;;6236353;28;20040;-71
2021/07/01 04:30:19;;;;;;;0.50;0.50;;;24.20;57.50;;;;;;6236255;28;20032;-72
2021/07/01 04:33:20;;;;;;;0.40;0.40;;;24.20;57.50;;;;;;6237289;28;20506;-72
2021/07/01 04:36:21;;;;;;;0.50;0.50;;;24.20;57.50;;;;;;6237340;28;20018;-72
2021/07/01 04:39:22;;;;;;;0.40;0.40;;;24.20;57.50;;;;;;6236067;28;20036;-72
2021/07/01 04:42:23;;;;;;;0.73;0.60;;;24.20;57.40;;;;;;6236051;28;20025;-69
2021/07/01 04:45:23;;;;;;;0.40;0.40;;;24.20;57.50;;;;;;6221483;28;20022;-71
2021/07/01 04:48:24;;;;;;;0.47;0.47;;;24.20;57.50;;;;;;6211322;28;20050;-71
2021/07/01 04:51:25;;;;;;;0.75;0.50;;;24.20;57.50;;;;;;6232943;28;20021;-71
2021/07/01 04:54:26;;;;;;;0.40;0.40;;;24.20;57.50;;;;;;6210791;28;20059;-70
2021/07/01 04:57:27;;;;;;;0.57;0.50;;;24.20;57.50;;;;;;6237299;28;20394;-70
2021/07/01 05:00:28;;;;;;;0.40;0.40;;;24.20;57.50;;;;;;6237025;28;20025;-72
2021/07/01 05:03:28;;;;;;;0.40;0.40;;;24.20;57.50;;;;;;6192735;28;20041;-72
2021/07/01 05:06:29;;;;;;;0.50;0.43;;;24.20;57.50;;;;;;6226965;28;20530;-70
2021/07/01 05:09:31;;;;;;;0.50;0.50;;;24.20;57.50;;;;;;6236663;28;20214;-71
2021/07/01 05:12:32;;;;;;;0.50;0.50;;;24.20;57.50;;;;;;6211851;28;20529;-72
2021/07/01 05:15:33;;;;;;;0.50;0.50;;;24.20;57.50;;;;;;6216990;28;20029;-70
2021/07/01 05:18:33;;;;;;;0.75;0.60;;;24.20;57.50;;;;;;6235165;28;20028;-72
2021/07/01 05:21:34;;;;;;;0.50;0.50;;;24.20;57.50;;;;;;6234958;28;20032;-72
2021/07/01 05:24:34;;;;;;;0.50;0.50;;;24.20;57.50;;;;;;6234875;28;20017;-72
2021/07/01 05:27:35;;;;;;;0.40;0.40;;;24.20;57.50;;;;;;6236005;28;20026;-70
2021/07/01 05:30:36;;;;;;;0.40;0.35;;;24.20;57.40;;;;;;6234930;28;20029;-72
2021/07/01 05:33:37;;;;;;;0.50;0.50;;;24.20;57.50;;;;;;6234480;28;20037;-70
2021/07/01 05:36:38;;;;;;;0.40;0.40;;;24.20;57.50;;;;;;6237895;28;20082;-71
2021/07/01 05:39:38;;;;;;;0.45;0.40;;;24.20;57.50;;;;;;6339455;28;20138;-71
2021/07/01 05:42:39;;;;;;;0.40;0.40;;;24.20;57.50;;;;;;6251409;28;20025;-70
2021/07/01 05:45:40;;;;;;;0.40;0.40;;;24.20;57.50;;;;;;6234625;28;20120;-71
2021/07/01 05:48:41;;;;;;;0.50;0.50;;;24.20;57.50;;;;;;6234728;28;20207;-72
2021/07/01 05:51:44;;;;;;;0.40;0.40;;;24.20;57.50;;;;;;6234404;28;20041;-70
2021/07/01 05:54:55;;;;;;;0.40;0.40;;;24.20;57.50;;;;;;6194757;28;20054;-69
2021/07/01 05:57:56;;;;;;;0.50;0.50;;;24.20;57.50;;;;;;6227218;28;20041;-71
2021/07/01 06:00:57;;;;;;;0.70;0.50;;;24.20;57.50;;;;;;6215712;28;20090;-71
2021/07/01 06:03:57;;;;;;;0.40;0.40;;;24.20;57.50;;;;;;6227842;28;20368;-71
2021/07/01 06:06:59;;;;;;;0.52;0.40;;;24.20;57.50;;;;;;6221554;28;20033;-71
2021/07/01 06:10:02;;;;;;;0.40;0.40;;;24.20;57.50;;;;;;6212023;28;20423;-73
2021/07/01 06:13:05;;;;;;;0.40;0.40;;;24.20;57.50;;;;;;6230856;28;20014;-72
2021/07/01 06:16:11;;;;;;;0.40;0.40;;;24.20;57.50;;;;;;6234687;28;20018;-73
2021/07/01 06:19:14;;;;;;;0.30;0.30;;;24.20;57.50;;;;;;6252067;28;20038;-70
2021/07/01 06:22:15;;;;;;;0.65;0.30;;;24.20;57.50;;;;;;6295285;28;20025;-72
2021/07/01 06:25:16;;;;;;;0.47;0.45;;;24.20;57.50;;;;;;6344121;28;20023;-73
2021/07/01 06:28:17;;;;;;;0.60;0.30;;;24.10;57.80;;;;;;6252384;28;20102;-73
2021/07/01 06:31:19;;;;;;;0.85;0.50;;;24.00;57.90;;;;;;6216626;28;20233;-72
2021/07/01 06:34:20;;;;;;;1.23;0.52;;;24.00;57.80;;;;;;6265729;28;20028;-71
2021/07/01 06:37:21;;;;;;;0.85;0.40;;;23.90;57.80;;;;;;6293754;28;20483;-72
2021/07/01 06:40:23;;;;;;;0.63;0.60;;;23.90;57.90;;;;;;6240095;28;20026;-72
2021/07/01 06:43:27;;;;;;;0.50;0.50;;;23.90;57.80;;;;;;6282656;28;20027;-70
2021/07/01 06:46:31;;;;;;;1.05;0.50;;;23.90;57.80;;;;;;6336460;28;20020;-70
2021/07/01 06:49:32;;;;;;;0.82;0.40;;;23.90;57.70;;;;;;6233368;28;20116;-71
2021/07/01 06:52:33;;;;;;;1.70;0.50;;;23.90;57.70;;;;;;6229183;28;20049;-72
2021/07/01 06:55:34;;;;;;;0.57;0.40;;;23.90;57.80;;;;;;6288807;28;20089;-71
2021/07/01 06:58:37;;;;;;;0.52;0.50;;;23.90;57.80;;;;;;6233553;28;20017;-68
2021/07/01 07:01:39;;;;;;;1.48;0.60;;;23.90;57.80;;;;;;6240865;28;20088;-68
2021/07/01 07:04:41;;;;;;;1.55;0.85;;;23.90;57.70;;;;;;6314236;28;20024;-68
2021/07/01 07:07:43;;;;;;;1.05;0.50;;;23.80;57.60;;;;;;6325260;28;20026;-70
2021/07/01 07:10:45;;;;;;;0.68;0.60;;;23.80;57.60;;;;;;6233839;28;20038;-67
2021/07/01 07:13:45;;;;;;;0.60;0.60;;;23.80;57.60;;;;;;6221695;28;20026;-72
2021/07/01 07:16:50;;;;;;;0.85;0.70;;;23.80;57.50;;;;;;6241938;28;20036;-70
2021/07/01 07:19:51;;;;;;;1.13;0.70;;;23.80;57.60;;;;;;6227675;28;20823;-68
2021/07/01 07:22:54;;;;;;;2.85;0.75;;;23.90;57.60;;;;;;6227931;28;20125;-70
2021/07/01 07:25:55;;;;;;;1.77;0.57;;;23.80;57.50;;;;;;6234120;28;20058;-70
2021/07/01 07:28:57;;;;;;;0.60;0.50;;;23.80;57.50;;;;;;6256004;28;20037;-70
2021/07/01 07:31:59;;;;;;;0.98;0.68;;;23.80;57.50;;;;;;6240311;28;20026;-71
2021/07/01 07:35:00;;;;;;;2.85;0.90;;;23.80;57.50;;;;;;6228563;28;20494;-72
2021/07/01 07:38:04;;;;;;;1.70;0.88;;;23.80;57.50;;;;;;6219790;28;20022;-74
2021/07/01 07:41:05;;;;;;;4.40;1.10;;;23.80;57.50;;;;;;6327421;28;20552;-70
2021/07/01 07:44:07;;;;;;;1.42;0.73;;;23.80;57.50;;;;;;6311059;28;20035;-71
2021/07/01 07:47:15;;;;;;;3.88;1.00;;;23.80;57.50;;;;;;6342999;28;20164;-70
2021/07/01 07:50:17;;;;;;;1.45;0.88;;;23.80;57.50;;;;;;6238480;28;20022;-70
2021/07/01 07:53:23;;;;;;;2.67;0.90;;;23.70;57.60;;;;;;6219084;28;20090;-74
2021/07/01 07:56:36;;;;;;;1.38;0.70;;;23.70;57.50;;;;;;6267198;28;20023;-70
2021/07/01 07:59:38;;;;;;;1.55;0.90;;;23.70;57.60;;;;;;6305918;27;20104;-69
2021/07/01 08:02:51;;;;;;;3.05;0.90;;;23.70;57.60;;;;;;6344133;27;20125;-70
2021/07/01 08:05:54;;;;;;;1.73;0.80;;;23.70;57.50;;;;;;6310516;28;20472;-71
2021/07/01 08:08:57;;;;;;;2.35;0.80;;;23.70;57.50;;;;;;6323077;28;20034;-70
2021/07/01 08:11:58;;;;;;;1.58;0.70;;;23.70;57.50;;;;;;6222030;28;20033;-70
2021/07/01 08:15:00;;;;;;;2.13;0.55;;;23.70;57.50;;;;;;6275258;28;20034;-70
2021/07/01 08:18:02;;;;;;;2.15;0.95;;;23.60;57.50;;;;;;6281044;28;20024;-70
2021/07/01 08:21:03;;;;;;;2.83;0.75;;;23.70;57.50;;;;;;6273411;28;20030;-70
2021/07/01 08:24:05;;;;;;;2.35;0.80;;;23.60;57.40;;;;;;6215725;28;20034;-69
2021/07/01 08:27:07;;;;;;;5.57;0.90;;;23.60;57.40;;;;;;6323878;28;20050;-71
2021/07/01 08:30:09;;;;;;;2.00;0.73;;;23.60;57.40;;;;;;6277651;28;20029;-70
2021/07/01 08:33:10;;;;;;;1.92;0.73;;;23.60;57.40;;;;;;6215482;28;20534;-71
2021/07/01 08:36:22;;;;;;;0.50;0.43;;;23.60;57.40;;;;;;6280135;28;20648;-71
2021/07/01 08:39:29;;;;;;;0.80;0.50;;;23.60;57.40;;;;;;6324611;28;20634;-70
2021/07/01 08:42:37;;;;;;;1.63;0.70;;;23.60;57.30;;;;;;6215283;28;20034;-70
2021/07/01 08:45:56;;;;;;;1.17;0.60;;;23.70;57.30;;;;;;6227766;28;20021;-70
2021/07/01 08:48:59;;;;;;;0.93;0.50;;;23.70;57.20;;;;;;6215180;28;20113;-70
2021/07/01 08:52:05;;;;;;;1.38;0.65;;;23.70;57.20;;;;;;6304139;28;20038;-71
2021/07/01 08:55:07;;;;;;;1.98;0.52;;;23.80;57.30;;;;;;6223716;28;20048;-71
2021/07/01 08:58:12;;;;;;;1.90;0.57;;;23.80;57.30;;;;;;6214939;28;20033;-70
2021/07/01 09:01:17;;;;;;;3.75;0.60;;;23.80;57.30;;;;;;6246676;28;20644;-69
2021/07/01 09:04:20;;;;;;;2.10;0.50;;;23.80;57.30;;;;;;6236545;28;20029;-70
2021/07/01 09:07:23;;;;;;;1.27;0.60;;;23.80;57.30;;;;;;6288406;28;20073;-69
2021/07/01 09:10:25;;;;;;;5.07;0.70;;;23.80;57.30;;;;;;6214040;28;20553;-70
2021/07/01 09:13:28;;;;;;;1.73;0.50;;;23.80;57.30;;;;;;6213109;28;20030;-71
2021/07/01 09:16:31;;;;;;;2.20;0.60;;;23.90;57.30;;;;;;6213323;28;20078;-71
2021/07/01 09:19:33;;;;;;;1.25;0.47;;;23.90;57.40;;;;;;6298448;28;20051;-72
2021/07/01 09:22:34;;;;;;;4.38;0.55;;;23.90;57.30;;;;;;6310854;28;20431;-72
2021/07/01 09:25:37;;;;;;;2.22;0.45;;;23.90;57.30;;;;;;6292835;28;20116;-70
2021/07/01 09:28:39;;;;;;;2.65;0.45;;;23.90;57.30;;;;;;6214750;28;20026;-71
2021/07/01 09:31:40;;;;;;;6.32;0.70;;;23.90;57.30;;;;;;6212584;28;20030;-71
2021/07/01 09:34:43;;;;;;;1.98;0.52;;;23.90;57.20;;;;;;6245738;28;20030;-70
2021/07/01 09:37:45;;;;;;;3.90;0.70;;;23.90;57.20;;;;;;6236899;28;20116;-71
2021/07/01 09:40:47;;;;;;;1.40;0.55;;;23.90;57.10;;;;;;6233276;28;20109;-73
2021/07/01 09:43:49;;;;;;;1.17;0.73;;;23.90;57.10;;;;;;6236858;28;20049;-70
2021/07/01 09:46:49;;;;;;;1.35;0.52;;;23.90;57.20;;;;;;6264843;28;20053;-70
2021/07/01 09:49:52;;;;;;;1.17;0.28;;;23.90;57.10;;;;;;6340613;28;20028;-72
2021/07/01 09:52:56;;;;;;;0.60;0.35;;;23.90;57.10;;;;;;6244986;28;20063;-71
2021/07/01 09:56:03;;;;;;;0.55;0.50;;;23.90;57.10;;;;;;6210427;28;20022;-73
2021/07/01 09:59:13;;;;;;;1.15;0.45;;;23.90;57.00;;;;;;6213419;28;20018;-71
2021/07/01 10:02:17;;;;;;;0.85;0.38;;;23.90;57.00;;;;;;6227038;28;20539;-71
2021/07/01 10:05:28;;;;;;;0.40;0.30;;;24.00;57.10;;;;;;6211991;28;20029;-71
2021/07/01 10:08:39;;;;;;;0.73;0.32;;;24.00;57.10;;;;;;6289610;28;20131;-71
2021/07/01 10:11:42;;;;;;;1.15;0.60;;;24.00;57.10;;;;;;6301882;28;20557;-71
2021/07/01 10:14:44;;;;;;;0.40;0.40;;;24.00;57.10;;;;;;6237792;28;20027;-71
2021/07/01 10:18:08;;;;;;;0.30;0.30;;;24.00;57.10;;;;;;6221146;28;20022;-72
2021/07/01 10:21:16;;;;;;;0.32;0.32;;;24.00;57.00;;;;;;6212181;28;20069;-71
2021/07/01 10:24:19;;;;;;;1.13;0.50;;;24.00;57.10;;;;;;6222750;28;20607;-71
2021/07/01 10:27:31;;;;;;;0.40;0.30;;;24.00;57.00;;;;;;6268502;28;20023;-72
2021/07/01 10:30:32;;;;;;;0.40;0.40;;;24.00;57.00;;;;;;6339999;28;20119;-72
2021/07/01 10:33:35;;;;;;;0.60;0.40;;;24.00;57.00;;;;;;6249026;28;20021;-72
2021/07/01 10:36:36;;;;;;;0.60;0.40;;;23.90;57.20;;;;;;6270598;28;20033;-73
2021/07/01 10:39:38;;;;;;;1.30;0.40;;;23.80;57.40;;;;;;6336778;28;20500;-73
2021/07/01 10:42:50;;;;;;;0.80;0.50;;;23.80;57.30;;;;;;6277335;28;20019;-72
2021/07/01 10:45:55;;;;;;;1.42;0.65;;;23.80;57.10;;;;;;6213209;28;20018;-74
2021/07/01 10:48:56;;;;;;;0.95;0.60;;;23.80;57.10;;;;;;6211847;28;20026;-70
2021/07/01 10:51:59;;;;;;;1.13;0.60;;;23.70;57.00;;;;;;6217274;28;20560;-69
2021/07/01 10:55:00;;;;;;;0.95;0.60;;;23.70;57.00;;;;;;6214221;28;20046;-74
2021/07/01 10:58:01;;;;;;;0.80;0.80;;;23.70;56.90;;;;;;6278285;28;20032;-72
2021/07/01 11:01:04;;;;;;;1.17;0.60;;;23.70;56.90;;;;;;6341020;28;20027;-72
2021/07/01 11:04:13;;;;;;;2.55;1.10;;;23.60;56.80;;;;;;6224650;28;20022;-71
2021/07/01 11:07:14;;;;;;;2.42;0.80;;;23.60;56.70;;;;;;6217214;28;20024;-70
2021/07/01 11:10:30;;;;;;;1.63;0.80;;;23.60;56.80;;;;;;6242613;28;20033;-71
2021/07/01 11:13:31;;;;;;;3.03;1.17;;;23.60;57.50;;;;;;6253886;28;20029;-73
2021/07/01 11:16:46;;;;;;;1.90;0.93;;;23.60;56.80;;;;;;6261176;28;20035;-70
2021/07/01 11:19:47;;;;;;;1.58;0.65;;;23.60;56.80;;;;;;6245636;28;20113;-72
2021/07/01 11:22:51;;;;;;;5.57;1.02;;;23.60;56.80;;;;;;6217029;28;20026;-71
2021/07/01 11:25:52;;;;;;;0.85;0.80;;;23.60;56.80;;;;;;6216881;28;20042;-71
2021/07/01 11:28:58;;;;;;;1.45;0.98;;;23.60;56.80;;;;;;6219381;28;20030;-71
2021/07/01 11:31:59;;;;;;;1.17;0.95;;;23.60;56.90;;;;;;6241562;28;20029;-72
2021/07/01 11:35:00;;;;;;;2.50;1.20;;;23.50;56.80;;;;;;6241219;28;20025;-71
2021/07/01 11:38:01;;;;;;;1.70;1.10;;;23.50;56.80;;;;;;6238508;28;20102;-71
2021/07/01 11:41:04;;;;;;;1.42;1.20;;;23.50;56.70;;;;;;6343809;28;20067;-70
2021/07/01 11:44:05;;;;;;;3.30;1.52;;;23.50;56.70;;;;;;6285884;28;20096;-71
2021/07/01 11:47:08;;;;;;;4.68;1.45;;;23.50;56.80;;;;;;6341141;28;20050;-71
2021/07/01 11:50:10;;;;;;;2.30;1.30;;;23.50;56.80;;;;;;6259599;28;20064;-71
2021/07/01 11:53:10;;;;;;;2.00;1.25;;;23.50;56.80;;;;;;6232410;28;20042;-70
2021/07/01 11:56:11;;;;;;;4.22;1.42;;;23.50;56.90;;;;;;6220344;28;20083;-72
2021/07/01 11:59:12;;;;;;;2.90;1.38;;;23.50;56.90;;;;;;6258532;28;20114;-71
2021/07/01 12:02:12;;;;;;;2.10;1.23;;;23.50;57.00;;;;;;6307643;28;20552;-71
2021/07/01 12:05:13;;;;;;;2.38;1.40;;;23.50;57.00;;;;;;6215982;28;20026;-70
2021/07/01 12:08:14;;;;;;;2.75;1.38;;;23.50;57.10;;;;;;6215793;28;20026;-72
2021/07/01 12:11:16;;;;;;;1.85;1.20;;;23.40;57.00;;;;;;6218444;28;20052;-73
2021/07/01 12:14:44;;;;;;;1.75;1.30;;;23.40;57.10;;;;;;6263979;28;20345;-71
2021/07/01 12:17:58;;;;;;;3.03;1.45;;;23.40;57.20;;;;;;6342740;28;20070;-70
2021/07/01 12:21:01;;;;;;;2.22;1.45;;;23.50;57.30;;;;;;6211467;28;20025;-72
2021/07/01 12:24:04;;;;;;;3.03;1.80;;;23.40;57.10;;;;;;6216864;28;20186;-70
2021/07/01 12:27:29;;;;;;;4.15;1.60;;;23.40;57.20;;;;;;6220017;28;20034;-72
2021/07/01 12:31:00;;;;;;;2.35;1.60;;;23.40;57.30;;;;;;6263991;28;20025;-70
2021/07/01 12:34:03;;;;;;;2.65;1.75;;;23.50;57.40;;;;;;6242269;28;20022;-70
2021/07/01 12:37:05;;;;;;;4.78;1.92;;;23.40;57.30;;;;;;6219691;28;20018;-71
2021/07/01 12:40:26;;;;;;;3.67;1.73;;;23.40;57.40;;;;;;6213002;28;20120;-70
2021/07/01 12:43:52;;;;;;;2.47;1.77;;;23.40;57.40;;;;;;6239534;28;20025;-71
2021/07/01 12:46:59;;;;;;;3.92;2.15;;;23.40;57.40;;;;;;6214035;28;20024;-71
2021/07/01 12:50:04;;;;;;;2.85;1.67;;;23.40;57.50;;;;;;6215582;28;20079;-70
2021/07/01 12:53:30;;;;;;;3.88;1.75;;;23.40;57.50;;;;;;6289194;28;20099;-70
2021/07/01 12:56:38;;;;;;;2.22;1.60;;;23.40;57.60;;;;;;6202005;28;20116;-70
2021/07/01 12:59:46;;;;;;;2.65;1.70;;;23.40;57.60;;;;;;6220886;28;21842;-71
2021/07/01 13:02:58;;;;;;;3.80;1.85;;;23.40;57.70;;;;;;6284909;28;20100;-72
2021/07/01 13:05:59;;;;;;;2.33;1.50;;;23.40;57.80;;;;;;6232049;28;20021;-71
2021/07/01 13:09:00;;;;;;;2.75;1.88;;;23.40;57.80;;;;;;6310161;28;20594;-69
2021/07/01 13:12:11;;;;;;;3.92;1.65;;;23.40;57.70;;;;;;6243425;28;20026;-71
2021/07/01 13:15:19;;;;;;;5.43;1.55;;;23.40;57.80;;;;;;6278337;28;20041;-71
2021/07/01 13:18:22;;;;;;;2.72;1.40;;;23.40;57.80;;;;;;6324785;28;20431;-71
2021/07/01 13:21:24;;;;;;;6.35;1.65;;;23.40;57.90;;;;;;6228732;28;20040;-70
2021/07/01 13:24:25;;;;;;;3.65;2.38;;;23.40;58.00;;;;;;6228630;28;20030;-73
2021/07/01 13:27:30;;;;;;;4.75;2.42;;;23.40;57.90;;;;;;6213477;28;20438;-70
2021/07/01 13:30:41;;;;;;;11.98;1.85;;;23.40;58.00;;;;;;6248765;28;20021;-70
2021/07/01 13:33:41;;;;;;;3.05;1.85;;;23.40;58.00;;;;;;6328310;28;20038;-70
2021/07/01 13:36:42;;;;;;;3.47;2.33;;;23.40;58.10;;;;;;6264398;28;20030;-71
2021/07/01 13:39:43;;;;;;;2.90;1.60;;;23.30;57.90;;;;;;6257262;28;20063;-71
2021/07/01 13:42:45;;;;;;;2.05;1.50;;;23.40;58.10;;;;;;6297540;28;20031;-73
2021/07/01 13:45:51;;;;;;;2.97;1.50;;;23.30;58.00;;;;;;6286835;28;20022;-70
2021/07/01 13:48:59;;;;;;;3.25;1.67;;;23.30;58.00;;;;;;6212104;28;20577;-72
2021/07/01 13:52:00;;;;;;;2.05;1.60;;;23.30;58.00;;;;;;6220550;28;20513;-71
2021/07/01 13:55:00;;;;;;;2.53;1.73;;;23.40;58.00;;;;;;6214917;28;20153;-71
2021/07/01 13:58:02;;;;;;;2.85;1.83;;;23.30;58.00;;;;;;6308322;28;20019;-71
2021/07/01 14:01:05;;;;;;;4.40;1.55;;;23.40;58.10;;;;;;6309448;28;20078;-72
2021/07/01 14:04:06;;;;;;;2.70;1.50;;;23.30;58.00;;;;;;6279568;28;20051;-71
2021/07/01 14:07:06;;;;;;;2.50;1.60;;;23.30;58.00;;;;;;6234769;28;20081;-70
2021/07/01 14:10:09;;;;;;;2.78;1.50;;;23.30;58.00;;;;;;6211550;28;20469;-71
2021/07/01 14:13:10;;;;;;;2.95;1.20;;;23.40;58.00;;;;;;6280324;28;20028;-71
2021/07/01 14:16:12;;;;;;;2.10;1.35;;;23.40;57.80;;;;;;6325813;28;20031;-72
2021/07/01 14:19:17;;;;;;;2.80;1.48;;;23.50;57.90;;;;;;6216966;28;20465;-74
2021/07/01 14:22:29;;;;;;;3.00;1.48;;;23.50;57.80;;;;;;6223083;28;20022;-72
2021/07/01 14:25:37;;;;;;;1.40;0.98;;;23.50;57.70;;;;;;6211974;28;20352;-70
2021/07/01 14:28:37;;;;;;;4.90;1.30;;;23.50;57.70;;;;;;6258361;28;20446;-71
2021/07/01 14:31:40;;;;;;;2.55;1.30;;;23.60;57.70;;;;;;6239518;28;20026;-70
2021/07/01 14:34:42;;;;;;;1.63;1.30;;;23.50;57.50;;;;;;6317944;28;20031;-71
2021/07/01 14:37:43;;;;;;;7.03;1.92;;;23.60;57.60;;;;;;6274104;28;20038;-71
2021/07/01 14:40:56;;;;;;;14.13;5.20;;;23.60;57.50;;;;;;6295035;28;20143;-70
2021/07/01 14:44:02;;;;;;;19.23;7.32;;;23.60;57.50;;;;;;6284466;28;20027;-72
2021/07/01 14:47:16;;;;;;;18.85;6.63;;;23.60;57.50;;;;;;6309237;28;20030;-70
2021/07/01 14:50:22;;;;;;;16.63;5.45;;;23.60;57.50;;;;;;6240730;28;20077;-73
2021/07/01 14:53:34;;;;;;;27.48;8.95;;;23.60;57.40;;;;;;6258195;28;20553;-71
2021/07/01 14:56:39;;;;;;;31.65;10.25;;;23.60;57.50;;;;;;6209100;28;20086;-72
2021/07/01 15:00:00;;;;;;;30.38;10.43;;;23.60;57.50;;;;;;6224407;28;20026;-71
2021/07/01 15:03:08;;;;;;;31.60;10.85;;;23.60;57.50;;;;;;6242454;28;20018;-71
2021/07/01 15:06:12;;;;;;;34.40;12.65;;;23.60;57.50;;;;;;6228817;28;20029;-73
2021/07/01 15:09:14;;;;;;;36.63;12.05;;;23.60;57.50;;;;;;6248012;28;20086;-70
2021/07/01 15:12:21;;;;;;;34.63;12.82;;;23.60;57.50;;;;;;6300325;28;20254;-71
2021/07/01 15:15:24;;;;;;;40.35;14.00;;;23.70;57.60;;;;;;6294956;28;20019;-70
2021/07/01 15:18:26;;;;;;;39.28;13.10;;;23.70;57.60;;;;;;6308046;28;20477;-70
2021/07/01 15:21:26;;;;;;;33.17;12.35;;;23.60;57.40;;;;;;6239644;28;20113;-71
2021/07/01 15:24:27;;;;;;;45.92;14.13;;;23.60;57.50;;;;;;6279591;28;20024;-70
2021/07/01 15:27:28;;;;;;;38.80;14.70;;;23.70;57.60;;;;;;6327387;28;20036;-70
2021/07/01 15:30:29;;;;;;;41.83;15.38;;;23.70;57.50;;;;;;6262135;28;20374;-70
2021/07/01 15:33:29;;;;;;;43.47;14.90;;;23.70;57.50;;;;;;6239533;28;20030;-70
2021/07/01 15:36:30;;;;;;;41.95;16.27;;;23.70;57.50;;;;;;6232586;28;20032;-71
2021/07/01 15:39:30;;;;;;;49.50;17.48;;;23.70;57.50;;;;;;6239063;28;20052;-70
2021/07/01 15:42:31;;;;;;;43.20;16.88;;;23.70;57.50;;;;;;6254515;28;20024;-72
2021/07/01 15:45:32;;;;;;;41.17;16.58;;;23.70;57.40;;;;;;6224623;28;20022;-71
2021/07/01 15:48:35;;;;;;;37.00;16.33;;;23.80;57.60;;;;;;6225455;28;20038;-72
2021/07/01 15:51:35;;;;;;;42.80;16.88;;;23.70;57.50;;;;;;6223002;28;20069;-72
2021/07/01 15:54:36;;;;;;;47.40;16.98;;;23.70;57.40;;;;;;6246111;28;20050;-70
2021/07/01 15:57:37;;;;;;;44.15;16.40;;;23.70;57.50;;;;;;6214582;28;20044;-72